Time;durP1;ratioP1;P1;durP2;ratioP2;P2;SDS_P1;SDS_P2;PMS_P1;PMS_P2;Temp;Humidity;BMP_temperature;BMP_pressure;BME280_temperature;BME280_humidity;BME280_pressure;Samples;Min_cycle;Max_cycle;Signal;HPM_P1;HPM_P2
2021/01/02 00:00:17;;;;;;;23.00;13.83;;;12.40;69.80;;;;;;5113758;28;20530;-55
2021/01/02 00:03:06;;;;;;;23.57;13.70;;;12.30;69.70;;;;;;5114257;28;20507;-55
2021/01/02 00:05:38;;;;;;;24.43;15.50;;;12.30;69.90;;;;;;5114728;28;20531;-55
2021/01/02 00:08:14;;;;;;;22.60;14.00;;;12.30;69.90;;;;;;5130217;28;20481;-57
2021/01/02 00:10:53;;;;;;;22.93;14.60;;;12.20;69.90;;;;;;5134079;28;20491;-57
2021/01/02 00:13:38;;;;;;;23.53;14.20;;;12.30;69.70;;;;;;5134622;28;20474;-57
2021/01/02 00:16:24;;;;;;;21.23;13.63;;;12.20;69.80;;;;;;5134570;28;20556;-53
2021/01/02 00:19:00;;;;;;;24.00;14.13;;;12.30;69.90;;;;;;5133832;27;20439;-54
2021/01/02 00:21:27;;;;;;;18.97;12.87;;;12.30;69.90;;;;;;5134469;28;20446;-55
2021/01/02 00:24:14;;;;;;;20.37;13.03;;;12.30;69.90;;;;;;5134605;28;20434;-55
2021/01/02 00:26:42;;;;;;;26.67;12.93;;;12.30;69.80;;;;;;5113924;28;20483;-56
2021/01/02 00:29:15;;;;;;;19.67;13.17;;;12.30;69.60;;;;;;5113494;28;20500;-56
2021/01/02 00:32:01;;;;;;;19.80;13.17;;;12.30;69.70;;;;;;5113954;28;20563;-54
2021/01/02 00:34:57;;;;;;;21.40;13.67;;;12.30;69.70;;;;;;5128859;28;20427;-54
2021/01/02 00:37:28;;;;;;;24.60;13.10;;;12.20;69.80;;;;;;5134565;27;20463;-57
2021/01/02 00:40:08;;;;;;;22.70;13.33;;;12.20;69.80;;;;;;5134159;27;20470;-56
2021/01/02 00:42:35;;;;;;;19.53;13.17;;;12.20;70.00;;;;;;5126098;27;20450;-56
2021/01/02 00:45:03;;;;;;;20.90;13.40;;;12.20;69.90;;;;;;5113960;28;20495;-57
2021/01/02 00:47:33;;;;;;;18.57;12.07;;;12.20;69.80;;;;;;5113831;28;20435;-53
2021/01/02 00:50:02;;;;;;;22.10;13.20;;;12.20;69.80;;;;;;5113355;28;20436;-53
2021/01/02 00:52:52;;;;;;;18.20;12.20;;;12.30;69.50;;;;;;5114193;28;20476;-56
2021/01/02 00:55:42;;;;;;;18.40;12.30;;;12.20;69.50;;;;;;5084099;28;20514;-56
2021/01/02 00:58:12;;;;;;;19.57;13.53;;;12.30;70.20;;;;;;5104035;28;20522;-54
2021/01/02 01:00:40;;;;;;;20.87;12.93;;;12.20;69.50;;;;;;5116961;27;20463;-53
2021/01/02 01:03:13;;;;;;;20.30;11.93;;;12.20;69.40;;;;;;5117555;28;20457;-53
2021/01/02 01:05:40;;;;;;;18.37;12.30;;;12.20;69.40;;;;;;5117779;28;20472;-53
2021/01/02 01:08:07;;;;;;;18.53;11.83;;;12.20;69.40;;;;;;5117642;28;20475;-56
2021/01/02 01:10:35;;;;;;;16.07;11.50;;;12.20;69.30;;;;;;5116909;27;20478;-56
2021/01/02 01:13:04;;;;;;;21.87;13.40;;;12.30;69.20;;;;;;5117330;28;20547;-56
2021/01/02 01:15:32;;;;;;;20.73;12.80;;;12.20;69.20;;;;;;5117120;28;20523;-55
2021/01/02 01:18:27;;;;;;;23.17;13.47;;;12.10;69.60;;;;;;5117053;27;20519;-56
2021/01/02 01:20:56;;;;;;;22.37;12.67;;;12.20;69.60;;;;;;5114824;28;20472;-51
2021/01/02 01:23:30;;;;;;;19.67;12.60;;;12.20;69.60;;;;;;5117253;28;20486;-52
2021/01/02 01:26:16;;;;;;;19.40;13.00;;;12.20;69.50;;;;;;5117206;27;20564;-51
2021/01/02 01:28:46;;;;;;;20.17;12.60;;;12.20;69.30;;;;;;5116471;28;20463;-53
2021/01/02 01:31:16;;;;;;;19.07;12.40;;;12.20;69.50;;;;;;5116967;28;20559;-57
2021/01/02 01:33:47;;;;;;;21.50;12.37;;;12.10;69.40;;;;;;5116890;28;20507;-56
2021/01/02 01:36:15;;;;;;;18.20;11.10;;;12.00;69.70;;;;;;5117136;27;20446;-54
2021/01/02 01:38:42;;;;;;;20.83;12.80;;;12.10;69.90;;;;;;5116183;28;20532;-55
2021/01/02 01:41:12;;;;;;;18.27;11.80;;;12.10;69.80;;;;;;5116768;28;20440;-52
2021/01/02 01:44:21;;;;;;;23.10;11.93;;;12.10;70.00;;;;;;5116962;28;20542;-54
2021/01/02 01:46:52;;;;;;;20.20;11.70;;;12.30;69.50;;;;;;5091058;28;20468;-52
2021/01/02 01:49:59;;;;;;;19.70;12.57;;;12.20;69.40;;;;;;5115955;28;20467;-55
2021/01/02 01:52:44;;;;;;;18.50;12.03;;;12.10;69.60;;;;;;5115335;27;20478;-52
2021/01/02 01:55:11;;;;;;;17.87;11.60;;;12.10;69.70;;;;;;5136829;27;20492;-55
2021/01/02 01:57:38;;;;;;;19.60;12.87;;;12.10;69.70;;;;;;5136672;27;20481;-52
2021/01/02 02:00:10;;;;;;;16.03;10.63;;;12.10;69.80;;;;;;5136477;27;20427;-53
2021/01/02 02:03:00;;;;;;;19.20;12.03;;;12.20;69.70;;;;;;5125556;27;20531;-54
2021/01/02 02:05:48;;;;;;;16.13;10.50;;;12.20;69.90;;;;;;5116657;28;20435;-57
2021/01/02 02:08:15;;;;;;;17.97;11.90;;;12.20;69.50;;;;;;5116311;28;20432;-56
2021/01/02 02:10:44;;;;;;;17.57;11.33;;;12.30;69.60;;;;;;5115746;28;20469;-54
2021/01/02 02:13:12;;;;;;;18.13;12.13;;;12.20;69.50;;;;;;5116316;28;20519;-56
2021/01/02 02:15:46;;;;;;;19.13;10.97;;;12.20;69.40;;;;;;5116629;28;20474;-55
2021/01/02 02:18:17;;;;;;;16.70;11.33;;;12.30;69.60;;;;;;5116018;28;20438;-57
2021/01/02 02:20:46;;;;;;;15.60;11.30;;;12.30;69.30;;;;;;5131150;27;20445;-56
2021/01/02 02:23:14;;;;;;;19.00;12.07;;;12.30;69.50;;;;;;5136711;27;20427;-56
2021/01/02 02:25:46;;;;;;;16.77;10.97;;;12.20;69.70;;;;;;5136528;27;20427;-56
2021/01/02 02:28:28;;;;;;;17.60;11.27;;;12.20;69.80;;;;;;5132747;27;20515;-57
2021/01/02 02:30:54;;;;;;;17.03;10.73;;;12.30;69.60;;;;;;5115190;28;20459;-56
2021/01/02 02:33:22;;;;;;;18.63;10.90;;;12.30;69.70;;;;;;5115794;28;20427;-54
2021/01/02 02:35:49;;;;;;;16.27;11.30;;;12.30;69.70;;;;;;5115744;28;20530;-56
2021/01/02 02:38:17;;;;;;;15.80;11.00;;;12.20;69.80;;;;;;5115758;27;20467;-55
2021/01/02 02:40:43;;;;;;;19.10;12.67;;;12.20;69.70;;;;;;5115044;28;20519;-52
2021/01/02 02:43:10;;;;;;;16.83;11.70;;;12.20;69.70;;;;;;5115466;28;20475;-55
2021/01/02 02:45:37;;;;;;;19.23;12.20;;;12.20;70.50;;;;;;5116148;27;20479;-52
2021/01/02 02:48:05;;;;;;;18.13;11.90;;;12.20;70.00;;;;;;5115733;28;20456;-57
2021/01/02 02:50:32;;;;;;;17.87;11.60;;;12.30;69.70;;;;;;5115131;28;20518;-53
2021/01/02 02:53:05;;;;;;;16.97;11.67;;;12.20;69.70;;;;;;5115556;28;20562;-53
2021/01/02 02:55:35;;;;;;;16.67;11.30;;;12.10;69.80;;;;;;5115817;28;20432;-55
2021/01/02 02:58:02;;;;;;;16.97;11.33;;;12.20;69.80;;;;;;5113844;28;20551;-53
2021/01/02 03:00:29;;;;;;;16.80;11.10;;;12.30;70.30;;;;;;5115082;28;20447;-53
2021/01/02 03:02:56;;;;;;;18.63;11.33;;;12.20;69.50;;;;;;5115443;28;20503;-55
2021/01/02 03:05:23;;;;;;;17.53;11.20;;;12.20;69.80;;;;;;5115354;28;20483;-52
2021/01/02 03:07:50;;;;;;;20.37;11.03;;;12.30;69.50;;;;;;5115483;28;20494;-52
2021/01/02 03:10:18;;;;;;;16.10;11.63;;;12.30;69.50;;;;;;5114778;28;20453;-55
2021/01/02 03:12:46;;;;;;;17.30;11.50;;;12.20;69.60;;;;;;5115143;27;20503;-53
2021/01/02 03:15:13;;;;;;;19.10;11.90;;;12.20;69.70;;;;;;5115096;28;20442;-57
2021/01/02 03:17:41;;;;;;;17.43;12.43;;;12.20;69.70;;;;;;5115196;28;20462;-53
2021/01/02 03:20:08;;;;;;;20.00;11.73;;;12.20;69.80;;;;;;5114787;28;20491;-56
2021/01/02 03:22:38;;;;;;;18.10;11.77;;;12.10;70.00;;;;;;5114947;28;20447;-57
2021/01/02 03:25:06;;;;;;;16.37;11.10;;;12.10;70.70;;;;;;5114979;28;20453;-56
2021/01/02 03:27:33;;;;;;;18.40;12.03;;;12.10;70.00;;;;;;5114974;28;20514;-54
2021/01/02 03:30:02;;;;;;;18.33;12.07;;;12.20;69.70;;;;;;5114410;27;20436;-57
2021/01/02 03:32:28;;;;;;;20.17;11.90;;;12.20;69.40;;;;;;5114881;28;20463;-56
2021/01/02 03:34:55;;;;;;;19.37;12.63;;;12.20;69.60;;;;;;5114958;28;20467;-55
2021/01/02 03:37:23;;;;;;;18.07;11.97;;;12.20;69.50;;;;;;5114844;28;20458;-55
2021/01/02 03:39:50;;;;;;;18.83;12.37;;;12.20;69.80;;;;;;5114215;28;20534;-53
2021/01/02 03:42:17;;;;;;;20.70;12.50;;;12.20;69.70;;;;;;5114699;28;20518;-56
2021/01/02 03:44:44;;;;;;;17.60;12.23;;;12.10;69.70;;;;;;5114794;28;20479;-54
2021/01/02 03:47:11;;;;;;;18.17;11.50;;;12.20;69.40;;;;;;5114395;28;20446;-56
2021/01/02 03:49:38;;;;;;;20.50;12.17;;;12.30;69.20;;;;;;5132448;27;20526;-57
2021/01/02 03:52:05;;;;;;;17.87;12.03;;;12.10;69.50;;;;;;5135098;27;20562;-57
2021/01/02 03:54:32;;;;;;;17.77;12.30;;;12.20;69.20;;;;;;5135125;28;20431;-56
2021/01/02 03:56:59;;;;;;;20.20;12.43;;;12.20;69.20;;;;;;5129152;27;20509;-56
2021/01/02 03:59:26;;;;;;;20.00;12.37;;;12.30;69.10;;;;;;5113823;28;20523;-57
2021/01/02 04:01:54;;;;;;;18.37;12.03;;;12.20;69.20;;;;;;5114479;28;20463;-56
2021/01/02 04:04:21;;;;;;;19.67;12.53;;;12.10;69.40;;;;;;5114635;28;20460;-54
2021/01/02 04:06:48;;;;;;;16.63;12.10;;;12.10;69.50;;;;;;5114722;28;20526;-55
2021/01/02 04:09:15;;;;;;;22.07;12.00;;;12.10;69.30;;;;;;5114093;28;20497;-57
2021/01/02 04:11:42;;;;;;;18.67;11.80;;;12.10;69.40;;;;;;5114482;28;20503;-55
2021/01/02 04:14:09;;;;;;;20.57;11.77;;;12.20;69.20;;;;;;5115378;28;20524;-54
2021/01/02 04:16:36;;;;;;;18.67;12.30;;;12.20;69.10;;;;;;5134775;28;20445;-56
2021/01/02 04:19:04;;;;;;;15.20;11.03;;;12.20;69.10;;;;;;5134593;28;20495;-55
2021/01/02 04:21:31;;;;;;;16.57;11.07;;;12.10;69.40;;;;;;5135104;28;20527;-57
2021/01/02 04:23:57;;;;;;;19.37;12.17;;;12.20;69.50;;;;;;5125517;28;20482;-55
2021/01/02 04:26:25;;;;;;;15.70;11.07;;;12.20;69.60;;;;;;5114396;28;20505;-55
2021/01/02 04:28:52;;;;;;;18.87;11.50;;;12.10;69.50;;;;;;5113543;28;20523;-56
2021/01/02 04:31:19;;;;;;;15.83;11.20;;;12.20;69.60;;;;;;5114552;28;20531;-55
2021/01/02 04:33:46;;;;;;;13.77;10.63;;;12.20;69.60;;;;;;5115452;28;20504;-56
2021/01/02 04:36:14;;;;;;;18.57;12.50;;;12.10;69.50;;;;;;5118199;28;20507;-56
2021/01/02 04:38:41;;;;;;;15.87;11.40;;;12.20;69.50;;;;;;5117813;28;20458;-57
2021/01/02 04:41:07;;;;;;;16.23;10.87;;;12.20;69.40;;;;;;5118143;28;20493;-55
2021/01/02 04:43:34;;;;;;;15.90;10.83;;;12.20;69.50;;;;;;5118085;28;20576;-56
2021/01/02 04:46:01;;;;;;;13.70;10.20;;;12.20;69.50;;;;;;5118070;28;20480;-57
2021/01/02 04:48:28;;;;;;;16.27;11.27;;;12.20;69.40;;;;;;5117862;28;20468;-56
2021/01/02 04:50:55;;;;;;;18.60;11.70;;;12.20;69.20;;;;;;5130196;27;20472;-54
2021/01/02 04:53:23;;;;;;;16.20;11.57;;;12.20;69.40;;;;;;5138350;27;20549;-55
2021/01/02 04:55:49;;;;;;;15.90;11.30;;;12.10;69.60;;;;;;5138141;27;20498;-56
2021/01/02 04:58:18;;;;;;;19.63;11.70;;;12.20;69.50;;;;;;5138455;27;20477;-56
2021/01/02 05:00:46;;;;;;;16.90;11.20;;;12.20;69.50;;;;;;5117234;28;20542;-57
2021/01/02 05:03:13;;;;;;;16.70;10.07;;;12.20;69.50;;;;;;5117808;28;20485;-57
2021/01/02 05:05:40;;;;;;;15.43;10.33;;;12.10;69.50;;;;;;5117929;28;20467;-57
2021/01/02 05:08:07;;;;;;;14.50;10.03;;;12.20;69.40;;;;;;5117581;27;20527;-57
2021/01/02 05:10:34;;;;;;;15.60;10.50;;;12.20;69.40;;;;;;5116532;28;20446;-57
2021/01/02 05:13:08;;;;;;;15.87;10.77;;;12.20;69.50;;;;;;5117589;28;20475;-56
2021/01/02 05:15:35;;;;;;;14.30;9.80;;;12.20;69.60;;;;;;5117476;28;20424;-56
2021/01/02 05:18:02;;;;;;;16.80;11.20;;;12.20;69.40;;;;;;5117596;27;20482;-56
2021/01/02 05:20:29;;;;;;;14.13;9.60;;;12.20;69.40;;;;;;5116777;28;20443;-56
2021/01/02 05:22:57;;;;;;;14.67;10.43;;;12.20;69.40;;;;;;5117168;28;20459;-57
2021/01/02 05:25:25;;;;;;;14.27;9.90;;;12.30;69.50;;;;;;5122569;27;20439;-56
2021/01/02 05:27:52;;;;;;;12.03;9.33;;;12.30;69.50;;;;;;5138007;27;20490;-56
2021/01/02 05:30:21;;;;;;;12.13;9.30;;;12.30;69.50;;;;;;5137346;27;20463;-56
2021/01/02 05:33:12;;;;;;;13.20;9.80;;;12.20;69.60;;;;;;5137757;27;20478;-55
2021/01/02 05:35:41;;;;;;;12.73;9.33;;;12.20;69.60;;;;;;5120446;27;20432;-57
2021/01/02 05:38:12;;;;;;;12.30;9.60;;;12.20;69.60;;;;;;5117137;28;20468;-56
2021/01/02 05:40:39;;;;;;;14.13;9.70;;;12.20;69.40;;;;;;5116913;28;20425;-55
2021/01/02 05:43:07;;;;;;;14.77;9.90;;;12.20;69.50;;;;;;5116898;28;20478;-55
2021/01/02 05:45:34;;;;;;;13.83;9.90;;;12.30;69.60;;;;;;5116310;28;20527;-55
2021/01/02 05:48:15;;;;;;;11.00;8.17;;;12.30;69.60;;;;;;5116530;28;20431;-54
2021/01/02 05:50:46;;;;;;;13.33;8.77;;;12.30;69.60;;;;;;5116175;28;20428;-56
2021/01/02 05:53:21;;;;;;;12.23;8.80;;;12.20;69.80;;;;;;5132737;27;20553;-57
2021/01/02 05:56:06;;;;;;;15.17;9.50;;;12.20;70.10;;;;;;5137358;27;20475;-56
2021/01/02 05:58:40;;;;;;;14.63;9.30;;;12.20;69.90;;;;;;5136979;27;20427;-57
2021/01/02 06:01:09;;;;;;;11.50;8.40;;;12.30;69.60;;;;;;5137055;27;20515;-56
2021/01/02 06:03:37;;;;;;;12.97;8.97;;;12.30;69.80;;;;;;5137368;27;20462;-56
2021/01/02 06:06:05;;;;;;;10.33;8.10;;;12.30;69.70;;;;;;5137143;27;20447;-57
2021/01/02 06:08:33;;;;;;;11.67;8.90;;;12.30;69.70;;;;;;5136924;27;20469;-56
2021/01/02 06:11:02;;;;;;;9.97;8.27;;;12.20;69.80;;;;;;5136025;27;20521;-57
2021/01/02 06:13:29;;;;;;;11.40;8.47;;;12.20;70.00;;;;;;5136934;27;20546;-55
2021/01/02 06:16:01;;;;;;;11.00;8.30;;;12.20;69.90;;;;;;5137057;27;20526;-55
2021/01/02 06:18:28;;;;;;;13.10;8.90;;;12.20;69.90;;;;;;5136608;27;20526;-57
2021/01/02 06:20:56;;;;;;;10.73;7.70;;;12.30;69.80;;;;;;5136442;27;20471;-57
2021/01/02 06:23:25;;;;;;;10.53;7.90;;;12.20;69.90;;;;;;5136640;27;20435;-57
2021/01/02 06:25:53;;;;;;;10.57;7.60;;;12.20;70.10;;;;;;5136988;27;20436;-53
2021/01/02 06:28:20;;;;;;;10.23;7.60;;;12.20;70.70;;;;;;5123350;27;20475;-57
2021/01/02 06:30:48;;;;;;;11.77;8.43;;;12.30;69.90;;;;;;5115641;28;20436;-57
2021/01/02 06:33:16;;;;;;;11.50;8.47;;;12.20;70.00;;;;;;5115852;28;20567;-55
2021/01/02 06:35:43;;;;;;;10.93;8.03;;;12.30;70.00;;;;;;5115899;27;20436;-57
2021/01/02 06:38:11;;;;;;;9.80;8.03;;;12.30;70.00;;;;;;5115669;28;20522;-57
2021/01/02 06:40:39;;;;;;;10.67;7.80;;;12.30;69.90;;;;;;5115373;28;20523;-57
2021/01/02 06:43:12;;;;;;;10.13;8.53;;;12.40;69.70;;;;;;5115680;28;20443;-56
2021/01/02 06:45:55;;;;;;;11.73;8.23;;;12.30;69.90;;;;;;5125522;27;20438;-56
2021/01/02 06:48:41;;;;;;;10.50;7.80;;;12.30;69.80;;;;;;5135946;27;20517;-56
2021/01/02 06:51:30;;;;;;;11.70;8.17;;;12.20;70.00;;;;;;5136417;27;20443;-57
2021/01/02 06:54:01;;;;;;;10.13;8.13;;;12.30;70.00;;;;;;5130994;27;20482;-56
2021/01/02 06:56:33;;;;;;;9.90;7.37;;;12.20;70.30;;;;;;5114788;28;20527;-56
2021/01/02 06:59:00;;;;;;;10.10;7.93;;;12.20;70.10;;;;;;5114706;28;20497;-53
2021/01/02 07:01:42;;;;;;;11.27;8.07;;;12.20;70.30;;;;;;5115261;28;20439;-57
2021/01/02 07:04:10;;;;;;;9.83;8.10;;;12.20;70.20;;;;;;5115761;27;20520;-55
2021/01/02 07:06:41;;;;;;;9.03;7.80;;;12.20;70.10;;;;;;5115247;28;20472;-54
2021/01/02 07:09:23;;;;;;;12.70;8.40;;;12.30;70.30;;;;;;5114526;28;20444;-57
2021/01/02 07:11:50;;;;;;;10.00;7.63;;;12.30;70.10;;;;;;5113333;27;20475;-56
2021/01/02 07:14:21;;;;;;;10.80;7.63;;;12.30;70.10;;;;;;5115305;28;20451;-57
2021/01/02 07:16:50;;;;;;;9.17;7.70;;;12.20;70.10;;;;;;5115212;28;20436;-56
2021/01/02 07:19:33;;;;;;;11.17;8.33;;;12.30;70.10;;;;;;5115040;28;20539;-55
2021/01/02 07:22:00;;;;;;;10.73;7.70;;;12.20;70.20;;;;;;5114932;28;20527;-56
2021/01/02 07:24:28;;;;;;;10.90;7.77;;;12.30;70.20;;;;;;5115295;28;20467;-57
2021/01/02 07:26:58;;;;;;;14.50;9.30;;;12.30;69.90;;;;;;5114993;28;20454;-54
2021/01/02 07:29:26;;;;;;;10.03;7.50;;;12.20;70.00;;;;;;5114638;28;20466;-54
2021/01/02 07:31:53;;;;;;;11.00;7.90;;;12.20;70.10;;;;;;5114837;28;20504;-56
2021/01/02 07:34:20;;;;;;;13.13;8.37;;;12.30;70.20;;;;;;5114622;28;20518;-56
2021/01/02 07:36:49;;;;;;;11.40;7.60;;;12.20;70.20;;;;;;5114875;28;20498;-57
2021/01/02 07:39:16;;;;;;;11.83;8.27;;;12.20;70.20;;;;;;5114155;27;20503;-55
2021/01/02 07:41:43;;;;;;;11.53;8.10;;;12.20;70.20;;;;;;5114673;28;20531;-57
2021/01/02 07:44:09;;;;;;;11.63;8.23;;;12.30;70.00;;;;;;5114813;28;20535;-53
2021/01/02 07:46:42;;;;;;;12.23;8.30;;;12.30;69.80;;;;;;5115688;28;20440;-56
2021/01/02 07:49:08;;;;;;;12.13;8.70;;;12.30;69.90;;;;;;5134880;27;20491;-56
2021/01/02 07:51:35;;;;;;;12.47;9.00;;;12.30;69.80;;;;;;5135214;27;20435;-54
2021/01/02 07:54:03;;;;;;;12.03;8.57;;;12.30;69.70;;;;;;5135177;27;20505;-56
2021/01/02 07:56:34;;;;;;;11.10;8.33;;;12.30;69.90;;;;;;5125199;27;20499;-56
2021/01/02 07:59:21;;;;;;;10.53;8.13;;;12.20;69.80;;;;;;5113947;28;20467;-57
2021/01/02 08:01:52;;;;;;;12.63;8.37;;;12.30;69.80;;;;;;5114802;28;20444;-55
2021/01/02 08:04:19;;;;;;;11.57;8.30;;;12.20;70.00;;;;;;5114456;28;20444;-56
2021/01/02 08:06:46;;;;;;;13.40;9.10;;;12.20;70.10;;;;;;5114415;28;20524;-56
2021/01/02 08:09:14;;;;;;;13.67;9.13;;;12.30;69.90;;;;;;5117282;28;20497;-56
2021/01/02 08:11:54;;;;;;;10.63;8.73;;;12.20;70.00;;;;;;5118596;28;20518;-57
2021/01/02 08:14:21;;;;;;;11.10;8.17;;;12.30;70.00;;;;;;5118923;28;20431;-56
2021/01/02 08:17:01;;;;;;;13.43;8.60;;;12.30;70.00;;;;;;5118647;28;20439;-57
2021/01/02 08:19:31;;;;;;;12.30;8.67;;;12.30;69.70;;;;;;5118040;28;20427;-55
2021/01/02 08:21:59;;;;;;;11.20;8.20;;;12.30;69.80;;;;;;5119371;27;20451;-57
2021/01/02 08:24:27;;;;;;;9.50;7.50;;;12.30;69.80;;;;;;5138822;27;20514;-55
2021/01/02 08:26:54;;;;;;;13.43;9.17;;;12.30;69.60;;;;;;5139226;27;20466;-57
2021/01/02 08:29:21;;;;;;;12.70;9.10;;;12.30;69.60;;;;;;5138592;27;20463;-56
2021/01/02 08:31:50;;;;;;;13.70;8.33;;;12.30;69.60;;;;;;5129385;27;20446;-56
2021/01/02 08:34:29;;;;;;;10.80;7.50;;;12.30;69.70;;;;;;5118017;28;20536;-56
2021/01/02 08:37:00;;;;;;;12.90;8.90;;;12.30;69.70;;;;;;5118286;28;20543;-56
2021/01/02 08:39:28;;;;;;;16.20;8.97;;;12.40;69.80;;;;;;5117766;28;20432;-56
2021/01/02 08:41:55;;;;;;;12.37;8.47;;;12.30;69.60;;;;;;5138295;27;20521;-54
2021/01/02 08:44:24;;;;;;;12.70;8.60;;;12.30;69.80;;;;;;5138525;27;20450;-54
2021/01/02 08:46:51;;;;;;;10.70;8.03;;;12.30;69.80;;;;;;5138546;27;20522;-55
2021/01/02 08:49:31;;;;;;;12.50;8.10;;;12.30;70.10;;;;;;5129884;27;20439;-56
2021/01/02 08:52:20;;;;;;;10.70;7.70;;;12.30;70.00;;;;;;5118297;28;20439;-56
2021/01/02 08:54:50;;;;;;;10.30;7.70;;;12.50;70.00;;;;;;5117779;28;20447;-57
2021/01/02 08:57:27;;;;;;;11.00;7.90;;;12.40;69.90;;;;;;5117828;28;20444;-56
2021/01/02 09:00:05;;;;;;;13.83;7.60;;;12.40;70.30;;;;;;5117173;28;20511;-57
2021/01/02 09:02:32;;;;;;;11.70;7.97;;;12.40;70.30;;;;;;5118045;27;20527;-56
2021/01/02 09:05:03;;;;;;;10.10;7.10;;;12.40;70.10;;;;;;5117639;28;20469;-57
2021/01/02 09:07:31;;;;;;;13.40;7.40;;;12.40;70.00;;;;;;5117907;27;20508;-57
2021/01/02 09:10:32;;;;;;;10.20;7.77;;;12.40;69.90;;;;;;5116806;28;20456;-56
2021/01/02 09:13:10;;;;;;;13.60;8.50;;;12.50;69.90;;;;;;5115808;27;20509;-55
2021/01/02 09:15:47;;;;;;;12.03;8.53;;;12.50;69.90;;;;;;5117827;27;20482;-57
2021/01/02 09:18:14;;;;;;;10.93;7.47;;;12.50;70.00;;;;;;5117387;28;20519;-55
2021/01/02 09:20:41;;;;;;;12.13;8.27;;;12.50;70.00;;;;;;5115627;28;20538;-57
2021/01/02 09:23:08;;;;;;;11.47;8.30;;;12.50;69.80;;;;;;5117176;28;20482;-56
2021/01/02 09:25:37;;;;;;;11.03;8.30;;;12.50;69.80;;;;;;5117241;27;20538;-51
2021/01/02 09:28:11;;;;;;;13.97;8.70;;;12.60;69.60;;;;;;5117179;28;20482;-54
2021/01/02 09:30:38;;;;;;;10.77;8.17;;;12.60;69.70;;;;;;5116561;28;20432;-54
2021/01/02 09:33:05;;;;;;;11.93;7.97;;;12.60;69.60;;;;;;5120466;27;20484;-56
2021/01/02 09:35:32;;;;;;;11.13;8.00;;;12.50;69.60;;;;;;5137686;27;20510;-56
2021/01/02 09:37:58;;;;;;;12.33;8.13;;;12.50;69.80;;;;;;5137704;27;20534;-55
2021/01/02 09:40:26;;;;;;;11.40;7.60;;;12.50;69.90;;;;;;5137103;27;20449;-56
2021/01/02 09:42:53;;;;;;;11.57;8.07;;;12.50;69.90;;;;;;5125441;27;20533;-57
2021/01/02 09:45:20;;;;;;;12.00;8.67;;;12.50;69.80;;;;;;5116818;28;20534;-54
2021/01/02 09:47:47;;;;;;;13.10;7.97;;;12.50;69.90;;;;;;5116568;28;20527;-56
2021/01/02 09:50:14;;;;;;;12.87;8.70;;;12.60;69.70;;;;;;5116411;28;20485;-56
2021/01/02 09:52:40;;;;;;;11.83;7.77;;;12.60;69.60;;;;;;5116930;27;20534;-55
2021/01/02 09:55:09;;;;;;;11.93;8.07;;;12.60;69.70;;;;;;5116683;28;20448;-56
2021/01/02 09:57:37;;;;;;;12.77;8.70;;;12.60;69.70;;;;;;5116449;28;20475;-56
2021/01/02 10:00:05;;;;;;;10.53;8.00;;;12.60;69.50;;;;;;5115983;28;20479;-52
2021/01/02 10:02:32;;;;;;;12.03;8.10;;;12.60;69.80;;;;;;5116590;28;20459;-56
2021/01/02 10:04:59;;;;;;;15.70;8.80;;;12.60;69.60;;;;;;5116431;28;20436;-55
2021/01/02 10:07:26;;;;;;;14.97;9.00;;;12.60;69.90;;;;;;5116593;28;20508;-51
2021/01/02 10:09:53;;;;;;;14.27;9.20;;;12.60;69.60;;;;;;5131541;27;20439;-57
2021/01/02 10:12:20;;;;;;;14.47;9.30;;;12.60;69.50;;;;;;5136366;27;20530;-54
2021/01/02 10:14:49;;;;;;;14.53;9.37;;;12.70;69.40;;;;;;5136477;27;20532;-53
2021/01/02 10:17:16;;;;;;;13.87;8.73;;;12.70;69.40;;;;;;5136705;27;20449;-56
2021/01/02 10:19:43;;;;;;;15.63;9.70;;;12.70;69.30;;;;;;5136189;27;20431;-56
2021/01/02 10:22:10;;;;;;;15.70;9.70;;;12.70;69.20;;;;;;5136630;27;20481;-53
2021/01/02 10:24:37;;;;;;;15.77;9.60;;;12.80;69.20;;;;;;5136368;27;20467;-56
2021/01/02 10:27:04;;;;;;;15.93;9.63;;;12.70;69.50;;;;;;5125276;27;20447;-56
2021/01/02 10:29:31;;;;;;;16.37;9.67;;;12.80;69.50;;;;;;5115166;28;20462;-56
2021/01/02 10:32:00;;;;;;;14.73;9.27;;;12.80;69.20;;;;;;5115729;28;20471;-55
2021/01/02 10:34:27;;;;;;;13.23;8.67;;;12.70;69.10;;;;;;5115702;28;20468;-56
2021/01/02 10:36:54;;;;;;;13.30;8.90;;;12.80;69.40;;;;;;5135303;27;20445;-57
2021/01/02 10:39:21;;;;;;;15.07;9.80;;;12.80;69.20;;;;;;5135687;27;20439;-55
2021/01/02 10:41:48;;;;;;;14.57;9.43;;;12.80;69.30;;;;;;5136362;27;20431;-54
2021/01/02 10:44:15;;;;;;;12.40;8.80;;;12.70;69.30;;;;;;5129075;27;20505;-57
2021/01/02 10:46:45;;;;;;;13.37;9.10;;;12.80;69.50;;;;;;5115922;28;20648;-57
2021/01/02 10:49:13;;;;;;;13.43;8.57;;;12.80;69.70;;;;;;5114722;28;20531;-56
2021/01/02 10:51:40;;;;;;;15.20;9.73;;;12.70;69.40;;;;;;5115444;28;20472;-54
2021/01/02 10:54:08;;;;;;;13.10;8.60;;;12.70;69.60;;;;;;5115314;28;20471;-56
2021/01/02 10:56:35;;;;;;;16.33;8.33;;;12.70;69.60;;;;;;5115184;28;20436;-56
2021/01/02 10:59:02;;;;;;;15.90;8.80;;;12.80;69.50;;;;;;5114855;28;20481;-57
2021/01/02 11:01:29;;;;;;;13.47;8.40;;;12.80;69.50;;;;;;5115615;27;20450;-54
2021/01/02 11:03:56;;;;;;;14.17;9.20;;;12.70;69.70;;;;;;5115325;28;20523;-59
2021/01/02 11:06:24;;;;;;;15.23;9.33;;;12.70;69.80;;;;;;5114950;28;20448;-54
2021/01/02 11:08:50;;;;;;;13.83;8.63;;;12.80;69.60;;;;;;5114970;28;20439;-56
2021/01/02 11:11:18;;;;;;;14.77;9.13;;;12.90;69.40;;;;;;5126091;27;20451;-56
2021/01/02 11:13:45;;;;;;;11.73;8.30;;;12.80;69.30;;;;;;5135721;27;20466;-56
2021/01/02 11:16:12;;;;;;;14.70;8.47;;;12.90;69.30;;;;;;5135453;27;20499;-53
2021/01/02 11:18:41;;;;;;;12.20;7.93;;;12.80;69.60;;;;;;5134879;27;20486;-54
2021/01/02 11:21:08;;;;;;;13.17;8.50;;;12.80;69.50;;;;;;5135112;27;20482;-55
2021/01/02 11:23:36;;;;;;;14.10;8.50;;;12.90;69.30;;;;;;5135314;27;20474;-54
2021/01/02 11:26:08;;;;;;;12.10;8.63;;;12.90;69.20;;;;;;5135557;27;20456;-57
2021/01/02 11:28:35;;;;;;;13.87;8.80;;;12.80;69.30;;;;;;5135007;27;20510;-57
2021/01/02 11:31:02;;;;;;;13.70;9.20;;;12.80;69.50;;;;;;5134677;27;20442;-56
2021/01/02 11:33:29;;;;;;;13.10;8.83;;;12.80;69.50;;;;;;5135208;27;20558;-56
2021/01/02 11:35:55;;;;;;;15.27;8.13;;;12.90;69.30;;;;;;5135000;27;20490;-55
2021/01/02 11:38:22;;;;;;;11.70;8.30;;;12.90;69.10;;;;;;5134944;27;20439;-57
2021/01/02 11:40:51;;;;;;;11.60;8.00;;;12.90;69.20;;;;;;5135055;27;20462;-56
2021/01/02 11:43:18;;;;;;;11.43;8.33;;;13.00;69.00;;;;;;5134926;27;20438;-56
2021/01/02 11:45:45;;;;;;;13.70;8.37;;;13.00;69.10;;;;;;5132666;27;20474;-59
2021/01/02 11:48:13;;;;;;;12.77;8.37;;;12.90;69.20;;;;;;5114652;28;20471;-57
2021/01/02 11:50:40;;;;;;;13.73;8.27;;;12.90;69.40;;;;;;5113738;28;20527;-57
2021/01/02 11:53:07;;;;;;;13.87;8.80;;;12.90;69.50;;;;;;5114516;28;20500;-57
2021/01/02 11:55:33;;;;;;;10.57;8.07;;;12.80;69.40;;;;;;5114816;28;20535;-54
2021/01/02 11:58:01;;;;;;;12.03;8.00;;;12.90;69.40;;;;;;5114559;28;20471;-59
2021/01/02 12:00:28;;;;;;;11.87;8.33;;;12.80;69.30;;;;;;5113886;28;20492;-57
2021/01/02 12:02:55;;;;;;;14.70;8.60;;;12.80;69.50;;;;;;5114809;28;20511;-59
2021/01/02 12:05:22;;;;;;;14.50;8.40;;;12.80;69.60;;;;;;5114203;28;20515;-59
2021/01/02 12:07:49;;;;;;;12.00;8.00;;;12.90;69.60;;;;;;5114501;28;20445;-57
2021/01/02 12:10:16;;;;;;;12.90;8.53;;;12.80;69.60;;;;;;5113806;28;20532;-59
2021/01/02 12:12:43;;;;;;;11.37;8.00;;;12.90;69.60;;;;;;5114244;28;20443;-59
2021/01/02 12:15:12;;;;;;;11.87;8.43;;;12.90;69.40;;;;;;5114122;28;20442;-59
2021/01/02 12:17:39;;;;;;;13.63;8.90;;;12.90;69.40;;;;;;5114129;28;20479;-58
2021/01/02 12:20:09;;;;;;;13.20;9.17;;;13.00;69.20;;;;;;5113685;28;20431;-59
2021/01/02 12:22:36;;;;;;;12.73;8.73;;;12.90;69.50;;;;;;5114092;28;20539;-60
2021/01/02 12:25:05;;;;;;;13.40;8.90;;;13.00;69.50;;;;;;5114237;28;20445;-58
2021/01/02 12:27:32;;;;;;;12.93;9.00;;;12.90;69.40;;;;;;5114371;28;20509;-60
2021/01/02 12:29:59;;;;;;;13.40;8.50;;;12.90;69.80;;;;;;5113659;28;20464;-58
2021/01/02 12:32:27;;;;;;;12.77;8.57;;;12.90;69.50;;;;;;5114222;28;20526;-58
2021/01/02 12:34:55;;;;;;;17.00;9.30;;;12.90;69.40;;;;;;5114098;28;20511;-58
2021/01/02 12:37:22;;;;;;;12.60;8.97;;;12.90;69.40;;;;;;5113995;28;20428;-56
2021/01/02 12:39:49;;;;;;;14.30;9.00;;;12.90;69.60;;;;;;5124274;28;20470;-58
2021/01/02 12:42:15;;;;;;;13.50;8.90;;;12.90;69.50;;;;;;5134370;28;20511;-58
2021/01/02 12:44:44;;;;;;;14.53;9.53;;;13.00;69.20;;;;;;5134272;27;20481;-59
2021/01/02 12:47:11;;;;;;;12.80;9.13;;;13.00;69.20;;;;;;5134834;28;20427;-59